Tahifet, Algeria
Current Conditions -  °F | °C
As of 10:00 PM on Tuesday 25 Nov 2014 (Local Time) from DAAT Reporting Station
Clear Clear  
Wind Chill: 55°   Ceiling: Unl
Heat Index: 55°   Visibility: 6mi
Dew Point: 25°   Wind: 5mph
Humidity: 31%   Direction: 120°ESE
Pressure: 30.15"   Gusts: NA
Location:  22.94°N, 6.01°E
Report Text: DAAT 252100Z 12004KT CAVOK 13/M04 Q1021
Loading
Personal Weather Stations






























Interactive Weather Map New forecast layout! Learn more

10-Day Weather Forecast

Advertisements
Track Severe Weather on mobile